sensor_id;sensor_type;location;lat;lon;timestamp;P1;durP1;ratioP1;P2;durP2;ratioP2
65035;SDS011;51603;49.300;8.880;2023-04-03T00:00:49;4.53;;;3.20;;
65035;SDS011;51603;49.300;8.880;2023-04-03T00:03:16;6.33;;;4.23;;
65035;SDS011;51603;49.300;8.880;2023-04-03T00:05:42;6.33;;;4.57;;
65035;SDS011;51603;49.300;8.880;2023-04-03T00:08:08;5.90;;;5.10;;
65035;SDS011;51603;49.300;8.880;2023-04-03T00:10:34;4.90;;;3.97;;
65035;SDS011;51603;49.300;8.880;2023-04-03T00:13:01;7.10;;;4.57;;
65035;SDS011;51603;49.300;8.880;2023-04-03T00:15:26;8.57;;;4.83;;
65035;SDS011;51603;49.300;8.880;2023-04-03T00:17:52;6.93;;;4.17;;
65035;SDS011;51603;49.300;8.880;2023-04-03T00:20:18;4.13;;;3.73;;
65035;SDS011;51603;49.300;8.880;2023-04-03T00:22:43;5.90;;;3.70;;
65035;SDS011;51603;49.300;8.880;2023-04-03T00:25:09;7.63;;;3.43;;
65035;SDS011;51603;49.300;8.880;2023-04-03T00:27:36;4.20;;;3.63;;
65035;SDS011;51603;49.300;8.880;2023-04-03T00:30:03;4.43;;;4.03;;
65035;SDS011;51603;49.300;8.880;2023-04-03T00:32:29;4.93;;;3.97;;
65035;SDS011;51603;49.300;8.880;2023-04-03T00:34:54;3.40;;;3.00;;
65035;SDS011;51603;49.300;8.880;2023-04-03T00:37:20;3.83;;;3.47;;
65035;SDS011;51603;49.300;8.880;2023-04-03T00:39:46;7.17;;;3.63;;
65035;SDS011;51603;49.300;8.880;2023-04-03T00:42:11;3.60;;;3.07;;
65035;SDS011;51603;49.300;8.880;2023-04-03T00:47:04;8.27;;;3.40;;
65035;SDS011;51603;49.300;8.880;2023-04-03T00:49:33;5.23;;;3.70;;
65035;SDS011;51603;49.300;8.880;2023-04-03T00:51:59;2.70;;;2.40;;
65035;SDS011;51603;49.300;8.880;2023-04-03T00:54:25;3.57;;;3.10;;
65035;SDS011;51603;49.300;8.880;2023-04-03T00:56:51;3.50;;;3.13;;
65035;SDS011;51603;49.300;8.880;2023-04-03T00:59:20;4.37;;;3.13;;
65035;SDS011;51603;49.300;8.880;2023-04-03T01:01:50;3.90;;;3.37;;
65035;SDS011;51603;49.300;8.880;2023-04-03T01:04:34;5.40;;;3.00;;
65035;SDS011;51603;49.300;8.880;2023-04-03T01:07:05;4.90;;;3.43;;
65035;SDS011;51603;49.300;8.880;2023-04-03T01:09:33;4.40;;;3.30;;
65035;SDS011;51603;49.300;8.880;2023-04-03T01:15:00;5.63;;;3.37;;
65035;SDS011;51603;49.300;8.880;2023-04-03T01:23:06;4.47;;;3.50;;
65035;SDS011;51603;49.300;8.880;2023-04-03T01:25:48;3.60;;;3.13;;
65035;SDS011;51603;49.300;8.880;2023-04-03T01:28:21;3.73;;;3.23;;
65035;SDS011;51603;49.300;8.880;2023-04-03T01:31:03;4.40;;;3.28;;
65035;SDS011;51603;49.300;8.880;2023-04-03T01:33:49;4.70;;;3.00;;
65035;SDS011;51603;49.300;8.880;2023-04-03T01:36:18;4.47;;;3.00;;
65035;SDS011;51603;49.300;8.880;2023-04-03T01:38:46;4.30;;;3.60;;
65035;SDS011;51603;49.300;8.880;2023-04-03T01:41:13;5.85;;;3.42;;
65035;SDS011;51603;49.300;8.880;2023-04-03T01:43:38;4.33;;;2.70;;
65035;SDS011;51603;49.300;8.880;2023-04-03T01:46:04;4.30;;;2.50;;
65035;SDS011;51603;49.300;8.880;2023-04-03T01:48:30;3.47;;;2.63;;
65035;SDS011;51603;49.300;8.880;2023-04-03T01:50:55;6.53;;;3.37;;
65035;SDS011;51603;49.300;8.880;2023-04-03T01:53:21;6.60;;;2.80;;
65035;SDS011;51603;49.300;8.880;2023-04-03T01:55:46;3.23;;;2.70;;
65035;SDS011;51603;49.300;8.880;2023-04-03T01:58:13;5.07;;;3.13;;
65035;SDS011;51603;49.300;8.880;2023-04-03T02:00:38;3.93;;;2.97;;
65035;SDS011;51603;49.300;8.880;2023-04-03T02:03:04;4.40;;;3.00;;
65035;SDS011;51603;49.300;8.880;2023-04-03T02:05:29;2.83;;;2.60;;
65035;SDS011;51603;49.300;8.880;2023-04-03T02:07:55;4.57;;;2.70;;
65035;SDS011;51603;49.300;8.880;2023-04-03T02:10:21;2.60;;;2.10;;
65035;SDS011;51603;49.300;8.880;2023-04-03T02:12:47;3.17;;;2.30;;
65035;SDS011;51603;49.300;8.880;2023-04-03T02:15:12;5.13;;;2.37;;
65035;SDS011;51603;49.300;8.880;2023-04-03T02:17:38;5.07;;;2.60;;
65035;SDS011;51603;49.300;8.880;2023-04-03T02:20:03;2.80;;;2.20;;
65035;SDS011;51603;49.300;8.880;2023-04-03T02:22:29;2.47;;;2.27;;
65035;SDS011;51603;49.300;8.880;2023-04-03T02:24:55;4.13;;;2.50;;
65035;SDS011;51603;49.300;8.880;2023-04-03T02:27:20;3.37;;;2.70;;
65035;SDS011;51603;49.300;8.880;2023-04-03T02:29:46;3.93;;;2.50;;
65035;SDS011;51603;49.300;8.880;2023-04-03T02:32:11;3.10;;;2.33;;
65035;SDS011;51603;49.300;8.880;2023-04-03T02:34:37;3.10;;;2.00;;
65035;SDS011;51603;49.300;8.880;2023-04-03T02:37:02;8.73;;;2.50;;
65035;SDS011;51603;49.300;8.880;2023-04-03T02:39:28;5.63;;;2.80;;
65035;SDS011;51603;49.300;8.880;2023-04-03T02:41:54;4.20;;;3.17;;
65035;SDS011;51603;49.300;8.880;2023-04-03T02:44:19;4.70;;;2.83;;
65035;SDS011;51603;49.300;8.880;2023-04-03T02:46:45;2.97;;;2.23;;
65035;SDS011;51603;49.300;8.880;2023-04-03T02:49:10;6.47;;;3.67;;
65035;SDS011;51603;49.300;8.880;2023-04-03T02:51:36;2.60;;;2.40;;
65035;SDS011;51603;49.300;8.880;2023-04-03T02:54:01;4.40;;;2.17;;
65035;SDS011;51603;49.300;8.880;2023-04-03T02:56:27;3.50;;;2.53;;
65035;SDS011;51603;49.300;8.880;2023-04-03T02:58:53;3.60;;;2.30;;
65035;SDS011;51603;49.300;8.880;2023-04-03T03:01:18;3.23;;;2.40;;
65035;SDS011;51603;49.300;8.880;2023-04-03T03:03:44;2.70;;;2.20;;
65035;SDS011;51603;49.300;8.880;2023-04-03T03:06:11;5.33;;;3.40;;
65035;SDS011;51603;49.300;8.880;2023-04-03T03:08:38;4.00;;;2.37;;
65035;SDS011;51603;49.300;8.880;2023-04-03T03:11:05;2.10;;;1.80;;
65035;SDS011;51603;49.300;8.880;2023-04-03T03:13:30;4.67;;;2.50;;
65035;SDS011;51603;49.300;8.880;2023-04-03T03:15:56;2.67;;;2.10;;
65035;SDS011;51603;49.300;8.880;2023-04-03T03:18:22;5.17;;;2.73;;
65035;SDS011;51603;49.300;8.880;2023-04-03T03:20:54;7.83;;;3.70;;
65035;SDS011;51603;49.300;8.880;2023-04-03T03:23:22;2.33;;;2.13;;
65035;SDS011;51603;49.300;8.880;2023-04-03T03:25:49;6.65;;;2.75;;
65035;SDS011;51603;49.300;8.880;2023-04-03T03:28:19;3.92;;;3.03;;
65035;SDS011;51603;49.300;8.880;2023-04-03T03:30:45;3.50;;;2.20;;
65035;SDS011;51603;49.300;8.880;2023-04-03T03:33:10;3.50;;;2.43;;
65035;SDS011;51603;49.300;8.880;2023-04-03T03:35:36;3.03;;;2.40;;
65035;SDS011;51603;49.300;8.880;2023-04-03T03:38:01;3.07;;;2.27;;
65035;SDS011;51603;49.300;8.880;2023-04-03T03:40:27;3.03;;;2.60;;
65035;SDS011;51603;49.300;8.880;2023-04-03T03:42:52;3.37;;;2.87;;
65035;SDS011;51603;49.300;8.880;2023-04-03T03:45:18;3.77;;;2.67;;
65035;SDS011;51603;49.300;8.880;2023-04-03T03:47:44;4.00;;;3.03;;
65035;SDS011;51603;49.300;8.880;2023-04-03T03:50:10;3.27;;;2.93;;
65035;SDS011;51603;49.300;8.880;2023-04-03T03:52:35;4.53;;;3.50;;
65035;SDS011;51603;49.300;8.880;2023-04-03T03:55:01;4.07;;;3.30;;
65035;SDS011;51603;49.300;8.880;2023-04-03T03:57:27;5.20;;;2.87;;
65035;SDS011;51603;49.300;8.880;2023-04-03T03:59:53;3.90;;;2.87;;
65035;SDS011;51603;49.300;8.880;2023-04-03T04:02:19;2.60;;;2.10;;
65035;SDS011;51603;49.300;8.880;2023-04-03T04:04:45;4.93;;;3.03;;
65035;SDS011;51603;49.300;8.880;2023-04-03T04:07:11;3.13;;;2.20;;
65035;SDS011;51603;49.300;8.880;2023-04-03T04:09:36;3.03;;;2.57;;
65035;SDS011;51603;49.300;8.880;2023-04-03T04:12:02;3.53;;;2.27;;
65035;SDS011;51603;49.300;8.880;2023-04-03T04:14:27;2.83;;;1.90;;
65035;SDS011;51603;49.300;8.880;2023-04-03T04:16:53;3.70;;;2.50;;
65035;SDS011;51603;49.300;8.880;2023-04-03T04:19:18;4.57;;;2.40;;
65035;SDS011;51603;49.300;8.880;2023-04-03T04:21:44;3.57;;;2.77;;
65035;SDS011;51603;49.300;8.880;2023-04-03T04:24:10;5.30;;;3.37;;
65035;SDS011;51603;49.300;8.880;2023-04-03T04:26:36;3.00;;;2.70;;
65035;SDS011;51603;49.300;8.880;2023-04-03T04:29:01;2.60;;;2.40;;
65035;SDS011;51603;49.300;8.880;2023-04-03T04:31:27;2.53;;;2.33;;
65035;SDS011;51603;49.300;8.880;2023-04-03T04:33:53;2.53;;;2.30;;
65035;SDS011;51603;49.300;8.880;2023-04-03T04:36:19;5.07;;;2.57;;
65035;SDS011;51603;49.300;8.880;2023-04-03T04:38:44;4.33;;;2.73;;
65035;SDS011;51603;49.300;8.880;2023-04-03T04:41:10;2.67;;;2.40;;
65035;SDS011;51603;49.300;8.880;2023-04-03T04:43:35;4.60;;;2.90;;
65035;SDS011;51603;49.300;8.880;2023-04-03T04:46:02;2.93;;;2.63;;
65035;SDS011;51603;49.300;8.880;2023-04-03T04:48:36;3.70;;;3.28;;
65035;SDS011;51603;49.300;8.880;2023-04-03T04:51:02;6.87;;;3.63;;
65035;SDS011;51603;49.300;8.880;2023-04-03T04:53:28;17.35;;;8.35;;
65035;SDS011;51603;49.300;8.880;2023-04-03T04:55:54;18.50;;;10.93;;
65035;SDS011;51603;49.300;8.880;2023-04-03T04:58:19;24.77;;;15.80;;
65035;SDS011;51603;49.300;8.880;2023-04-03T05:00:45;11.00;;;9.87;;
65035;SDS011;51603;49.300;8.880;2023-04-03T05:03:11;15.30;;;10.13;;
65035;SDS011;51603;49.300;8.880;2023-04-03T05:05:37;14.00;;;11.13;;
65035;SDS011;51603;49.300;8.880;2023-04-03T05:08:03;10.10;;;8.93;;
65035;SDS011;51603;49.300;8.880;2023-04-03T05:10:29;10.63;;;8.02;;
65035;SDS011;51603;49.300;8.880;2023-04-03T05:12:56;8.40;;;6.63;;
65035;SDS011;51603;49.300;8.880;2023-04-03T05:15:21;12.47;;;7.60;;
65035;SDS011;51603;49.300;8.880;2023-04-03T05:17:47;11.50;;;7.80;;
65035;SDS011;51603;49.300;8.880;2023-04-03T05:20:13;12.90;;;5.50;;
65035;SDS011;51603;49.300;8.880;2023-04-03T05:22:38;8.30;;;5.63;;
65035;SDS011;51603;49.300;8.880;2023-04-03T05:25:04;7.47;;;4.90;;
65035;SDS011;51603;49.300;8.880;2023-04-03T05:27:31;5.38;;;3.72;;
65035;SDS011;51603;49.300;8.880;2023-04-03T05:29:56;3.87;;;3.50;;
65035;SDS011;51603;49.300;8.880;2023-04-03T05:32:23;4.33;;;3.30;;
65035;SDS011;51603;49.300;8.880;2023-04-03T05:34:50;4.07;;;3.67;;
65035;SDS011;51603;49.300;8.880;2023-04-03T05:37:16;4.60;;;3.67;;
65035;SDS011;51603;49.300;8.880;2023-04-03T05:39:42;3.83;;;3.53;;
65035;SDS011;51603;49.300;8.880;2023-04-03T05:42:07;4.30;;;3.47;;
65035;SDS011;51603;49.300;8.880;2023-04-03T05:44:33;4.40;;;4.00;;
65035;SDS011;51603;49.300;8.880;2023-04-03T05:46:59;6.63;;;3.23;;
65035;SDS011;51603;49.300;8.880;2023-04-03T05:49:24;6.70;;;3.20;;
65035;SDS011;51603;49.300;8.880;2023-04-03T05:51:50;3.97;;;3.17;;
65035;SDS011;51603;49.300;8.880;2023-04-03T05:54:23;3.70;;;2.85;;
65035;SDS011;51603;49.300;8.880;2023-04-03T05:56:53;4.30;;;3.63;;
65035;SDS011;51603;49.300;8.880;2023-04-03T05:59:19;4.17;;;3.10;;
65035;SDS011;51603;49.300;8.880;2023-04-03T06:01:45;6.93;;;3.15;;
65035;SDS011;51603;49.300;8.880;2023-04-03T06:04:11;3.40;;;3.00;;
65035;SDS011;51603;49.300;8.880;2023-04-03T06:06:48;5.00;;;3.25;;
65035;SDS011;51603;49.300;8.880;2023-04-03T06:09:14;3.03;;;2.70;;
65035;SDS011;51603;49.300;8.880;2023-04-03T06:11:41;4.00;;;3.10;;
65035;SDS011;51603;49.300;8.880;2023-04-03T06:14:07;4.85;;;3.50;;
65035;SDS011;51603;49.300;8.880;2023-04-03T06:16:34;5.45;;;3.83;;
65035;SDS011;51603;49.300;8.880;2023-04-03T06:18:59;4.80;;;3.57;;
65035;SDS011;51603;49.300;8.880;2023-04-03T06:21:25;3.10;;;2.80;;
65035;SDS011;51603;49.300;8.880;2023-04-03T06:23:51;4.00;;;3.27;;
65035;SDS011;51603;49.300;8.880;2023-04-03T06:26:17;9.50;;;3.63;;
65035;SDS011;51603;49.300;8.880;2023-04-03T06:28:43;5.03;;;3.33;;
65035;SDS011;51603;49.300;8.880;2023-04-03T06:31:08;4.33;;;3.93;;
65035;SDS011;51603;49.300;8.880;2023-04-03T06:33:34;5.27;;;3.90;;
65035;SDS011;51603;49.300;8.880;2023-04-03T06:36:02;5.23;;;3.90;;
65035;SDS011;51603;49.300;8.880;2023-04-03T06:38:29;6.10;;;4.90;;
65035;SDS011;51603;49.300;8.880;2023-04-03T06:40:54;6.30;;;4.33;;
65035;SDS011;51603;49.300;8.880;2023-04-03T06:43:21;8.07;;;4.20;;
65035;SDS011;51603;49.300;8.880;2023-04-03T06:45:46;6.93;;;4.80;;
65035;SDS011;51603;49.300;8.880;2023-04-03T06:48:12;5.63;;;4.57;;
65035;SDS011;51603;49.300;8.880;2023-04-03T06:50:38;4.63;;;4.23;;
65035;SDS011;51603;49.300;8.880;2023-04-03T06:53:04;6.13;;;4.35;;
65035;SDS011;51603;49.300;8.880;2023-04-03T06:55:30;4.10;;;3.70;;
65035;SDS011;51603;49.300;8.880;2023-04-03T06:57:56;7.47;;;4.20;;
65035;SDS011;51603;49.300;8.880;2023-04-03T07:00:22;5.97;;;4.10;;
65035;SDS011;51603;49.300;8.880;2023-04-03T07:02:48;4.87;;;3.70;;
65035;SDS011;51603;49.300;8.880;2023-04-03T07:05:13;5.40;;;3.93;;
65035;SDS011;51603;49.300;8.880;2023-04-03T07:07:39;9.10;;;4.67;;
65035;SDS011;51603;49.300;8.880;2023-04-03T07:10:05;6.87;;;4.33;;
65035;SDS011;51603;49.300;8.880;2023-04-03T07:12:32;6.17;;;3.63;;
65035;SDS011;51603;49.300;8.880;2023-04-03T07:14:58;4.97;;;3.80;;
65035;SDS011;51603;49.300;8.880;2023-04-03T07:17:24;4.90;;;3.73;;
65035;SDS011;51603;49.300;8.880;2023-04-03T07:19:50;3.77;;;3.47;;
65035;SDS011;51603;49.300;8.880;2023-04-03T07:22:16;4.57;;;3.40;;
65035;SDS011;51603;49.300;8.880;2023-04-03T07:24:42;5.10;;;2.90;;
65035;SDS011;51603;49.300;8.880;2023-04-03T07:27:07;4.00;;;3.30;;
65035;SDS011;51603;49.300;8.880;2023-04-03T07:29:33;3.43;;;2.80;;
65035;SDS011;51603;49.300;8.880;2023-04-03T07:31:59;3.97;;;3.00;;
65035;SDS011;51603;49.300;8.880;2023-04-03T07:34:25;5.07;;;2.93;;
65035;SDS011;51603;49.300;8.880;2023-04-03T07:36:51;3.07;;;2.70;;
65035;SDS011;51603;49.300;8.880;2023-04-03T07:39:17;6.07;;;2.60;;
65035;SDS011;51603;49.300;8.880;2023-04-03T07:41:42;3.80;;;2.43;;
65035;SDS011;51603;49.300;8.880;2023-04-03T07:44:08;4.87;;;3.30;;
65035;SDS011;51603;49.300;8.880;2023-04-03T07:46:34;3.80;;;2.40;;
65035;SDS011;51603;49.300;8.880;2023-04-03T07:49:00;4.80;;;1.90;;
65035;SDS011;51603;49.300;8.880;2023-04-03T07:51:26;5.20;;;2.20;;
65035;SDS011;51603;49.300;8.880;2023-04-03T07:53:53;5.43;;;2.83;;
65035;SDS011;51603;49.300;8.880;2023-04-03T07:56:19;3.70;;;2.50;;
65035;SDS011;51603;49.300;8.880;2023-04-03T07:58:45;2.37;;;1.90;;
65035;SDS011;51603;49.300;8.880;2023-04-03T08:01:11;5.53;;;2.40;;
65035;SDS011;51603;49.300;8.880;2023-04-03T08:03:37;2.80;;;2.33;;
65035;SDS011;51603;49.300;8.880;2023-04-03T08:06:04;10.27;;;2.87;;
65035;SDS011;51603;49.300;8.880;2023-04-03T08:08:32;4.37;;;2.17;;
65035;SDS011;51603;49.300;8.880;2023-04-03T08:10:59;4.90;;;2.57;;
65035;SDS011;51603;49.300;8.880;2023-04-03T08:13:27;4.97;;;2.27;;
65035;SDS011;51603;49.300;8.880;2023-04-03T08:15:53;3.60;;;2.37;;
65035;SDS011;51603;49.300;8.880;2023-04-03T08:18:19;2.80;;;1.97;;
65035;SDS011;51603;49.300;8.880;2023-04-03T08:20:46;4.37;;;2.10;;
65035;SDS011;51603;49.300;8.880;2023-04-03T08:23:12;8.40;;;2.57;;
65035;SDS011;51603;49.300;8.880;2023-04-03T08:25:39;5.83;;;1.87;;
65035;SDS011;51603;49.300;8.880;2023-04-03T08:28:06;4.80;;;1.97;;
65035;SDS011;51603;49.300;8.880;2023-04-03T08:30:32;4.90;;;2.73;;
65035;SDS011;51603;49.300;8.880;2023-04-03T08:33:00;4.07;;;2.13;;
65035;SDS011;51603;49.300;8.880;2023-04-03T08:35:26;3.43;;;2.30;;
65035;SDS011;51603;49.300;8.880;2023-04-03T08:37:52;2.10;;;1.67;;
65035;SDS011;51603;49.300;8.880;2023-04-03T08:40:18;2.93;;;2.20;;
65035;SDS011;51603;49.300;8.880;2023-04-03T08:48:15;3.93;;;2.20;;
65035;SDS011;51603;49.300;8.880;2023-04-03T08:50:50;2.40;;;1.40;;
65035;SDS011;51603;49.300;8.880;2023-04-03T08:53:21;1.87;;;1.67;;
65035;SDS011;51603;49.300;8.880;2023-04-03T08:55:53;5.50;;;2.70;;
65035;SDS011;51603;49.300;8.880;2023-04-03T08:58:24;5.30;;;2.37;;
65035;SDS011;51603;49.300;8.880;2023-04-03T09:01:14;5.03;;;2.03;;
65035;SDS011;51603;49.300;8.880;2023-04-03T09:03:48;3.67;;;2.00;;
65035;SDS011;51603;49.300;8.880;2023-04-03T09:06:25;3.00;;;1.83;;
65035;SDS011;51603;49.300;8.880;2023-04-03T09:09:11;3.53;;;1.80;;
65035;SDS011;51603;49.300;8.880;2023-04-03T09:12:10;1.90;;;1.30;;
65035;SDS011;51603;49.300;8.880;2023-04-03T09:17:30;3.23;;;1.60;;
65035;SDS011;51603;49.300;8.880;2023-04-03T09:22:32;2.67;;;1.53;;
65035;SDS011;51603;49.300;8.880;2023-04-03T09:25:00;2.20;;;1.40;;
65035;SDS011;51603;49.300;8.880;2023-04-03T09:27:36;2.40;;;1.63;;
65035;SDS011;51603;49.300;8.880;2023-04-03T09:30:02;2.90;;;1.60;;
65035;SDS011;51603;49.300;8.880;2023-04-03T09:32:32;3.73;;;1.77;;
65035;SDS011;51603;49.300;8.880;2023-04-03T09:37:51;6.60;;;2.80;;
65035;SDS011;51603;49.300;8.880;2023-04-03T09:40:27;1.83;;;1.70;;
65035;SDS011;51603;49.300;8.880;2023-04-03T09:43:18;3.77;;;1.90;;
65035;SDS011;51603;49.300;8.880;2023-04-03T09:45:46;1.83;;;1.30;;
65035;SDS011;51603;49.300;8.880;2023-04-03T09:53:32;3.23;;;1.70;;
65035;SDS011;51603;49.300;8.880;2023-04-03T09:55:58;2.43;;;1.50;;
65035;SDS011;51603;49.300;8.880;2023-04-03T09:58:32;2.47;;;1.57;;
65035;SDS011;51603;49.300;8.880;2023-04-03T10:01:02;2.43;;;1.57;;
65035;SDS011;51603;49.300;8.880;2023-04-03T10:03:30;2.30;;;1.37;;
65035;SDS011;51603;49.300;8.880;2023-04-03T10:05:57;3.03;;;1.80;;
65035;SDS011;51603;49.300;8.880;2023-04-03T10:08:25;2.73;;;1.57;;
65035;SDS011;51603;49.300;8.880;2023-04-03T10:13:56;3.83;;;2.00;;
65035;SDS011;51603;49.300;8.880;2023-04-03T10:16:29;4.83;;;1.80;;
65035;SDS011;51603;49.300;8.880;2023-04-03T10:22:12;4.17;;;1.63;;
65035;SDS011;51603;49.300;8.880;2023-04-03T10:24:52;4.43;;;2.07;;
65035;SDS011;51603;49.300;8.880;2023-04-03T10:30:19;3.20;;;2.07;;
65035;SDS011;51603;49.300;8.880;2023-04-03T10:33:20;3.53;;;1.77;;
65035;SDS011;51603;49.300;8.880;2023-04-03T10:43:46;2.63;;;1.37;;
65035;SDS011;51603;49.300;8.880;2023-04-03T10:46:17;2.00;;;1.43;;
65035;SDS011;51603;49.300;8.880;2023-04-03T10:51:36;4.40;;;1.63;;
65035;SDS011;51603;49.300;8.880;2023-04-03T10:54:12;3.00;;;2.00;;
65035;SDS011;51603;49.300;8.880;2023-04-03T10:56:48;3.17;;;1.80;;
65035;SDS011;51603;49.300;8.880;2023-04-03T11:01:56;4.40;;;2.20;;
65035;SDS011;51603;49.300;8.880;2023-04-03T11:04:27;2.63;;;1.63;;
65035;SDS011;51603;49.300;8.880;2023-04-03T11:07:00;5.23;;;1.73;;
65035;SDS011;51603;49.300;8.880;2023-04-03T11:09:30;4.10;;;1.60;;
65035;SDS011;51603;49.300;8.880;2023-04-03T11:12:06;6.73;;;2.10;;
65035;SDS011;51603;49.300;8.880;2023-04-03T11:14:40;4.00;;;1.57;;
65035;SDS011;51603;49.300;8.880;2023-04-03T11:22:29;3.77;;;2.20;;
65035;SDS011;51603;49.300;8.880;2023-04-03T11:25:02;5.83;;;1.97;;
65035;SDS011;51603;49.300;8.880;2023-04-03T11:28:05;3.40;;;1.90;;
65035;SDS011;51603;49.300;8.880;2023-04-03T11:30:28;3.67;;;1.90;;
65035;SDS011;51603;49.300;8.880;2023-04-03T11:33:10;3.10;;;1.87;;
65035;SDS011;51603;49.300;8.880;2023-04-03T11:35:43;3.10;;;1.50;;
65035;SDS011;51603;49.300;8.880;2023-04-03T11:38:22;4.60;;;2.40;;
65035;SDS011;51603;49.300;8.880;2023-04-03T11:40:51;3.97;;;2.03;;
65035;SDS011;51603;49.300;8.880;2023-04-03T11:43:23;3.57;;;2.10;;
65035;SDS011;51603;49.300;8.880;2023-04-03T11:45:55;3.10;;;2.00;;
65035;SDS011;51603;49.300;8.880;2023-04-03T11:50:53;3.20;;;2.80;;
65035;SDS011;51603;49.300;8.880;2023-04-03T11:56:00;7.93;;;3.07;;
65035;SDS011;51603;49.300;8.880;2023-04-03T12:04:24;2.13;;;1.50;;
65035;SDS011;51603;49.300;8.880;2023-04-03T12:06:53;5.80;;;2.90;;
65035;SDS011;51603;49.300;8.880;2023-04-03T12:12:26;2.23;;;1.80;;
65035;SDS011;51603;49.300;8.880;2023-04-03T12:14:52;3.57;;;2.33;;
65035;SDS011;51603;49.300;8.880;2023-04-03T12:17:20;4.90;;;2.33;;
65035;SDS011;51603;49.300;8.880;2023-04-03T12:19:48;2.63;;;2.23;;
65035;SDS011;51603;49.300;8.880;2023-04-03T12:22:15;3.50;;;2.13;;
65035;SDS011;51603;49.300;8.880;2023-04-03T12:24:46;3.80;;;2.00;;
65035;SDS011;51603;49.300;8.880;2023-04-03T12:30:01;2.30;;;1.70;;
65035;SDS011;51603;49.300;8.880;2023-04-03T12:32:34;3.13;;;1.90;;
65035;SDS011;51603;49.300;8.880;2023-04-03T12:35:19;3.57;;;2.13;;
65035;SDS011;51603;49.300;8.880;2023-04-03T12:43:25;5.40;;;2.40;;
65035;SDS011;51603;49.300;8.880;2023-04-03T12:46:12;3.83;;;2.10;;
65035;SDS011;51603;49.300;8.880;2023-04-03T12:51:09;4.50;;;1.90;;
65035;SDS011;51603;49.300;8.880;2023-04-03T12:53:48;2.73;;;1.80;;
65035;SDS011;51603;49.300;8.880;2023-04-03T12:56:20;2.83;;;1.77;;
65035;SDS011;51603;49.300;8.880;2023-04-03T12:58:54;1.93;;;1.70;;
65035;SDS011;51603;49.300;8.880;2023-04-03T13:01:37;2.17;;;1.93;;
65035;SDS011;51603;49.300;8.880;2023-04-03T13:04:02;4.17;;;1.93;;
65035;SDS011;51603;49.300;8.880;2023-04-03T13:06:33;2.90;;;1.67;;
65035;SDS011;51603;49.300;8.880;2023-04-03T13:09:04;2.47;;;1.70;;
65035;SDS011;51603;49.300;8.880;2023-04-03T13:11:32;1.73;;;1.63;;
65035;SDS011;51603;49.300;8.880;2023-04-03T13:14:03;3.00;;;1.87;;
65035;SDS011;51603;49.300;8.880;2023-04-03T13:16:39;2.93;;;1.80;;
65035;SDS011;51603;49.300;8.880;2023-04-03T13:19:06;6.07;;;2.07;;
65035;SDS011;51603;49.300;8.880;2023-04-03T13:21:41;2.73;;;1.87;;
65035;SDS011;51603;49.300;8.880;2023-04-03T13:24:08;4.40;;;1.87;;
65035;SDS011;51603;49.300;8.880;2023-04-03T13:26:35;1.87;;;1.47;;
65035;SDS011;51603;49.300;8.880;2023-04-03T13:29:03;4.30;;;1.80;;
65035;SDS011;51603;49.300;8.880;2023-04-03T13:31:34;3.27;;;1.93;;
65035;SDS011;51603;49.300;8.880;2023-04-03T13:34:15;3.20;;;2.10;;
65035;SDS011;51603;49.300;8.880;2023-04-03T13:36:44;3.27;;;2.03;;
65035;SDS011;51603;49.300;8.880;2023-04-03T13:39:32;3.73;;;1.70;;
65035;SDS011;51603;49.300;8.880;2023-04-03T13:42:00;1.77;;;1.57;;
65035;SDS011;51603;49.300;8.880;2023-04-03T13:44:39;2.50;;;1.77;;
65035;SDS011;51603;49.300;8.880;2023-04-03T13:49:37;3.33;;;1.90;;
65035;SDS011;51603;49.300;8.880;2023-04-03T13:55:16;4.50;;;2.13;;
65035;SDS011;51603;49.300;8.880;2023-04-03T13:57:49;1.70;;;1.27;;
65035;SDS011;51603;49.300;8.880;2023-04-03T14:00:38;4.37;;;1.90;;
65035;SDS011;51603;49.300;8.880;2023-04-03T14:03:20;2.50;;;1.63;;
65035;SDS011;51603;49.300;8.880;2023-04-03T14:06:06;4.33;;;2.10;;
65035;SDS011;51603;49.300;8.880;2023-04-03T14:08:35;2.57;;;1.77;;
65035;SDS011;51603;49.300;8.880;2023-04-03T14:11:01;3.07;;;1.80;;
65035;SDS011;51603;49.300;8.880;2023-04-03T14:13:29;4.73;;;2.60;;
65035;SDS011;51603;49.300;8.880;2023-04-03T14:15:55;2.30;;;1.70;;
65035;SDS011;51603;49.300;8.880;2023-04-03T14:18:21;2.47;;;1.87;;
65035;SDS011;51603;49.300;8.880;2023-04-03T14:20:47;2.50;;;2.03;;
65035;SDS011;51603;49.300;8.880;2023-04-03T14:23:14;2.90;;;2.10;;
65035;SDS011;51603;49.300;8.880;2023-04-03T14:25:40;2.73;;;1.80;;
65035;SDS011;51603;49.300;8.880;2023-04-03T14:28:14;2.10;;;1.90;;
65035;SDS011;51603;49.300;8.880;2023-04-03T14:30:41;3.23;;;2.03;;
65035;SDS011;51603;49.300;8.880;2023-04-03T14:33:09;3.13;;;1.83;;
65035;SDS011;51603;49.300;8.880;2023-04-03T14:35:38;3.47;;;2.23;;
65035;SDS011;51603;49.300;8.880;2023-04-03T14:38:05;4.50;;;2.37;;
65035;SDS011;51603;49.300;8.880;2023-04-03T14:40:55;6.20;;;5.37;;
65035;SDS011;51603;49.300;8.880;2023-04-03T14:43:21;3.93;;;3.47;;
65035;SDS011;51603;49.300;8.880;2023-04-03T14:45:47;4.10;;;2.30;;
65035;SDS011;51603;49.300;8.880;2023-04-03T14:48:21;3.70;;;2.33;;
65035;SDS011;51603;49.300;8.880;2023-04-03T14:50:49;4.30;;;2.17;;
65035;SDS011;51603;49.300;8.880;2023-04-03T14:53:16;3.90;;;2.50;;
65035;SDS011;51603;49.300;8.880;2023-04-03T14:55:46;3.33;;;1.93;;
65035;SDS011;51603;49.300;8.880;2023-04-03T14:58:16;1.73;;;1.60;;
65035;SDS011;51603;49.300;8.880;2023-04-03T15:00:43;7.00;;;2.20;;
65035;SDS011;51603;49.300;8.880;2023-04-03T15:03:13;4.53;;;2.13;;
65035;SDS011;51603;49.300;8.880;2023-04-03T15:05:44;2.70;;;2.00;;
65035;SDS011;51603;49.300;8.880;2023-04-03T15:08:23;4.40;;;2.17;;
65035;SDS011;51603;49.300;8.880;2023-04-03T15:10:51;5.53;;;2.20;;
65035;SDS011;51603;49.300;8.880;2023-04-03T15:13:20;5.47;;;2.40;;
65035;SDS011;51603;49.300;8.880;2023-04-03T15:15:49;1.70;;;1.33;;
65035;SDS011;51603;49.300;8.880;2023-04-03T15:18:23;2.00;;;1.80;;
65035;SDS011;51603;49.300;8.880;2023-04-03T15:20:51;3.23;;;2.47;;
65035;SDS011;51603;49.300;8.880;2023-04-03T15:23:17;3.17;;;1.67;;
65035;SDS011;51603;49.300;8.880;2023-04-03T15:25:43;6.40;;;1.93;;
65035;SDS011;51603;49.300;8.880;2023-04-03T15:28:15;4.20;;;1.73;;
65035;SDS011;51603;49.300;8.880;2023-04-03T15:30:44;2.50;;;1.50;;
65035;SDS011;51603;49.300;8.880;2023-04-03T15:33:10;1.87;;;1.37;;
65035;SDS011;51603;49.300;8.880;2023-04-03T15:35:36;2.57;;;1.33;;
65035;SDS011;51603;49.300;8.880;2023-04-03T15:38:01;2.20;;;1.60;;
65035;SDS011;51603;49.300;8.880;2023-04-03T15:40:27;5.00;;;1.53;;
65035;SDS011;51603;49.300;8.880;2023-04-03T15:42:52;3.27;;;1.40;;
65035;SDS011;51603;49.300;8.880;2023-04-03T15:45:18;3.00;;;1.63;;
65035;SDS011;51603;49.300;8.880;2023-04-03T15:47:44;3.10;;;1.63;;
65035;SDS011;51603;49.300;8.880;2023-04-03T15:50:10;2.77;;;1.73;;
65035;SDS011;51603;49.300;8.880;2023-04-03T15:52:35;3.00;;;1.60;;
65035;SDS011;51603;49.300;8.880;2023-04-03T15:55:01;2.53;;;1.40;;
65035;SDS011;51603;49.300;8.880;2023-04-03T15:57:26;3.20;;;1.97;;
65035;SDS011;51603;49.300;8.880;2023-04-03T15:59:53;1.90;;;1.43;;
65035;SDS011;51603;49.300;8.880;2023-04-03T16:02:19;2.40;;;1.53;;
65035;SDS011;51603;49.300;8.880;2023-04-03T16:04:44;3.43;;;1.43;;
65035;SDS011;51603;49.300;8.880;2023-04-03T16:07:10;3.03;;;1.90;;
65035;SDS011;51603;49.300;8.880;2023-04-03T16:09:36;3.07;;;1.83;;
65035;SDS011;51603;49.300;8.880;2023-04-03T16:12:02;2.00;;;1.40;;
65035;SDS011;51603;49.300;8.880;2023-04-03T16:14:28;2.80;;;1.67;;
65035;SDS011;51603;49.300;8.880;2023-04-03T16:16:55;2.53;;;1.70;;
65035;SDS011;51603;49.300;8.880;2023-04-03T16:19:21;2.60;;;1.63;;
65035;SDS011;51603;49.300;8.880;2023-04-03T16:21:47;2.10;;;1.70;;
65035;SDS011;51603;49.300;8.880;2023-04-03T16:24:13;4.97;;;1.73;;